createdAt,value
2018-05-05T00:00:31.941Z,99096.11
2018-05-05T00:02:59.328Z,99100.16
2018-05-05T00:05:26.715Z,99105.92
2018-05-05T00:07:54.107Z,99106.88
2018-05-05T00:10:21.496Z,99109.81
2018-05-05T00:12:48.887Z,99110.14
2018-05-05T00:15:16.281Z,99108.03
2018-05-05T00:17:43.660Z,99112.00
2018-05-05T00:20:11.056Z,99107.41
2018-05-05T00:22:38.447Z,99109.88
2018-05-05T00:25:05.832Z,99097.46
2018-05-05T00:27:33.217Z,99100.30
2018-05-05T00:30:00.619Z,99093.75
2018-05-05T00:32:27.991Z,99088.04
2018-05-05T00:34:55.386Z,99087.42
2018-05-05T00:37:22.785Z,99085.77
2018-05-05T00:39:50.159Z,99080.81
2018-05-05T00:42:17.568Z,99085.95
2018-05-05T00:44:44.955Z,99077.86
2018-05-05T00:47:12.341Z,99076.82
2018-05-05T00:49:39.721Z,99080.45
2018-05-05T00:52:07.143Z,99084.13
2018-05-05T00:54:46.205Z,99078.31
2018-05-05T00:57:13.609Z,99086.72
2018-05-05T00:59:40.992Z,99088.45
2018-05-05T01:02:08.388Z,99087.28
2018-05-05T01:04:35.781Z,99076.77
2018-05-05T01:07:03.168Z,99078.17
2018-05-05T01:09:30.561Z,99071.67
2018-05-05T01:11:57.960Z,99075.08
2018-05-05T01:14:25.367Z,99074.18
2018-05-05T01:16:52.738Z,99073.08
2018-05-05T01:19:20.128Z,99076.48
2018-05-05T01:21:47.527Z,99074.03
2018-05-05T01:24:14.917Z,99072.19
2018-05-05T01:26:42.315Z,99076.81
2018-05-05T01:29:09.696Z,99078.41
2018-05-05T01:31:37.098Z,99078.70
2018-05-05T01:34:04.482Z,99077.16
2018-05-05T01:36:31.878Z,99077.59
2018-05-05T01:39:00.007Z,99078.29
2018-05-05T01:41:27.423Z,99077.13
2018-05-05T01:43:54.800Z,99066.69
2018-05-05T01:46:22.180Z,99066.97
2018-05-05T01:48:49.613Z,99062.95
2018-05-05T01:51:16.986Z,99061.45
2018-05-05T01:53:44.387Z,99067.71
2018-05-05T01:56:11.779Z,99062.71
2018-05-05T01:58:39.184Z,99063.75
2018-05-05T02:01:06.584Z,99078.48
2018-05-05T02:03:33.979Z,99081.74
2018-05-05T02:06:03.227Z,99083.72
2018-05-05T02:08:30.617Z,99086.52
2018-05-05T02:10:58.008Z,99089.27
2018-05-05T02:13:25.396Z,99089.61
2018-05-05T02:15:52.778Z,99096.38
2018-05-05T02:18:20.177Z,99093.10
2018-05-05T02:20:47.551Z,99094.00
2018-05-05T02:23:14.950Z,99085.16
2018-05-05T02:25:42.375Z,99088.70
2018-05-05T02:28:09.756Z,99088.45
2018-05-05T02:30:37.153Z,99085.80
2018-05-05T02:33:04.546Z,99094.73
2018-05-05T02:35:31.933Z,99094.02
2018-05-05T02:37:59.333Z,99095.09
2018-05-05T02:40:26.718Z,99079.31
2018-05-05T02:42:54.120Z,99082.20
2018-05-05T02:45:21.504Z,99083.75
2018-05-05T02:47:49.645Z,99077.95
2018-05-05T02:50:17.039Z,99078.59
2018-05-05T02:52:44.424Z,99082.12
2018-05-05T02:55:11.822Z,99078.60
2018-05-05T02:57:39.199Z,99084.45
2018-05-05T03:00:06.602Z,99089.38
2018-05-05T03:02:33.996Z,99082.98
2018-05-05T03:05:01.387Z,99089.50
2018-05-05T03:07:28.779Z,99080.42
2018-05-05T03:09:56.160Z,99088.55
2018-05-05T03:12:23.548Z,99085.92
2018-05-05T03:14:50.946Z,99086.22
2018-05-05T03:17:18.328Z,99088.14
2018-05-05T03:19:45.731Z,99088.73
2018-05-05T03:22:13.116Z,99086.52
2018-05-05T03:24:40.521Z,99092.08
2018-05-05T03:27:07.927Z,99088.43
2018-05-05T03:29:35.318Z,99086.77
2018-05-05T03:32:03.016Z,99090.41
2018-05-05T03:34:30.418Z,99086.20
2018-05-05T03:36:57.795Z,99082.12
2018-05-05T03:39:25.211Z,99090.48
2018-05-05T03:41:52.591Z,99092.39
2018-05-05T03:44:19.983Z,99095.36
2018-05-05T03:46:47.372Z,99093.94
2018-05-05T03:49:14.760Z,99087.49
2018-05-05T03:51:43.812Z,99095.42
2018-05-05T03:54:11.216Z,99099.48
2018-05-05T03:56:38.599Z,99101.92
2018-05-05T03:59:17.627Z,99104.99
2018-05-05T04:01:56.901Z,99103.24
2018-05-05T04:04:24.288Z,99101.37
2018-05-05T04:06:52.040Z,99106.34
2018-05-05T04:09:19.445Z,99105.66
2018-05-05T04:11:46.839Z,99096.95
2018-05-05T04:14:14.225Z,99107.52
2018-05-05T04:16:41.615Z,99105.62
2018-05-05T04:19:08.992Z,99102.36
2018-05-05T04:21:36.711Z,99107.23
2018-05-05T04:24:04.092Z,99104.74
2018-05-05T04:26:31.483Z,99106.66
2018-05-05T04:28:58.863Z,99114.81
2018-05-05T04:31:26.272Z,99113.92
2018-05-05T04:33:53.664Z,99107.22
2018-05-05T04:36:21.053Z,99111.48
2018-05-05T04:38:48.433Z,99114.97
2018-05-05T04:41:15.905Z,99114.84
2018-05-05T04:43:43.293Z,99113.69
2018-05-05T04:46:10.683Z,99110.17
2018-05-05T04:48:38.079Z,99117.77
2018-05-05T04:51:05.470Z,99113.22
2018-05-05T04:53:32.852Z,99112.33
2018-05-05T04:56:00.274Z,99110.80
2018-05-05T04:58:27.655Z,99123.32
2018-05-05T05:00:55.058Z,99126.20
2018-05-05T05:03:22.447Z,99121.70
2018-05-05T05:05:49.835Z,99132.98
2018-05-05T05:08:17.224Z,99136.45
2018-05-05T05:10:44.614Z,99138.10
2018-05-05T05:13:12.000Z,99133.37
2018-05-05T05:15:39.399Z,99134.98
2018-05-05T05:18:06.792Z,99138.66
2018-05-05T05:20:34.184Z,99140.20
2018-05-05T05:23:01.579Z,99138.39
2018-05-05T05:25:28.967Z,99143.06
2018-05-05T05:27:56.364Z,99147.40
2018-05-05T05:30:24.696Z,99140.78
2018-05-05T05:32:52.103Z,99137.75
2018-05-05T05:35:19.482Z,99150.96
2018-05-05T05:37:46.872Z,99139.60
2018-05-05T05:40:14.262Z,99136.55
2018-05-05T05:42:41.666Z,99136.97
2018-05-05T05:45:09.047Z,99140.52
2018-05-05T05:47:36.590Z,99145.55
2018-05-05T05:50:03.957Z,99149.39
2018-05-05T05:52:31.394Z,99151.01
2018-05-05T05:54:58.772Z,99149.82
2018-05-05T05:57:26.172Z,99147.83
2018-05-05T05:59:54.702Z,99150.33
2018-05-05T06:02:22.099Z,99166.31
2018-05-05T06:04:49.518Z,99149.55
2018-05-05T06:07:16.944Z,99154.75
2018-05-05T06:09:44.327Z,99166.00
2018-05-05T06:12:11.719Z,99164.02
2018-05-05T06:14:39.099Z,99168.11
2018-05-05T06:17:06.740Z,99175.22
2018-05-05T06:19:34.138Z,99164.73
2018-05-05T06:22:01.975Z,99178.68
2018-05-05T06:24:29.426Z,99178.09
2018-05-05T06:26:56.835Z,99177.07
2018-05-05T06:29:24.881Z,99184.69
2018-05-05T06:31:52.271Z,99185.72
2018-05-05T06:34:19.668Z,99186.98
2018-05-05T06:36:47.736Z,99185.69
2018-05-05T06:39:15.182Z,99188.62
2018-05-05T06:41:42.587Z,99180.41
2018-05-05T06:44:10.004Z,99189.20
2018-05-05T06:46:37.403Z,99185.83
2018-05-05T06:49:04.795Z,99188.20
2018-05-05T06:51:32.176Z,99186.12
2018-05-05T06:53:59.583Z,99191.98
2018-05-05T06:56:27.664Z,99190.92
2018-05-05T06:58:55.060Z,99187.58
2018-05-05T07:01:22.576Z,99190.66
2018-05-05T07:03:49.989Z,99188.02
2018-05-05T07:06:17.492Z,99181.98
2018-05-05T07:08:45.086Z,99188.41
2018-05-05T07:11:12.504Z,99187.01
2018-05-05T07:13:39.849Z,99184.25
2018-05-05T07:16:07.228Z,99183.27
2018-05-05T07:18:34.656Z,99184.74
2018-05-05T07:21:02.904Z,99180.25
2018-05-05T07:23:30.291Z,99175.09
2018-05-05T07:25:57.713Z,99182.43
2018-05-05T07:28:25.583Z,99183.16
2018-05-05T07:30:52.976Z,99180.95
2018-05-05T07:33:20.372Z,99184.79
2018-05-05T07:35:47.781Z,99183.29
2018-05-05T07:38:15.168Z,99177.37
2018-05-05T07:40:42.575Z,99179.00
2018-05-05T07:43:09.968Z,99183.77
2018-05-05T07:45:37.362Z,99179.92
2018-05-05T07:48:05.552Z,99189.08
2018-05-05T07:50:32.948Z,99197.06
2018-05-05T07:53:00.332Z,99205.22
2018-05-05T07:55:27.731Z,99204.89
2018-05-05T07:57:55.356Z,99203.33
2018-05-05T08:00:22.747Z,99201.76
2018-05-05T08:02:50.144Z,99193.14
2018-05-05T08:05:17.677Z,99199.05
2018-05-05T08:07:45.066Z,99205.55
2018-05-05T08:10:12.467Z,99196.45
2018-05-05T08:12:40.096Z,99194.34
2018-05-05T08:15:07.820Z,99203.08
2018-05-05T08:17:35.202Z,99194.67
2018-05-05T08:20:02.593Z,99201.37
2018-05-05T08:22:30.961Z,99194.08
2018-05-05T08:24:58.354Z,99195.50
2018-05-05T08:27:25.736Z,99199.70
2018-05-05T08:29:53.139Z,99192.64
2018-05-05T08:32:20.631Z,99196.23
2018-05-05T08:34:48.023Z,99200.11
2018-05-05T08:37:15.435Z,99195.29
2018-05-05T08:39:42.989Z,99191.72
2018-05-05T08:42:10.836Z,99187.74
2018-05-05T08:44:38.215Z,99186.89
2018-05-05T08:47:05.915Z,99185.52
2018-05-05T08:49:33.648Z,99182.38
2018-05-05T08:52:01.048Z,99187.75
2018-05-05T08:54:28.424Z,99192.78
2018-05-05T08:56:55.836Z,99187.21
2018-05-05T08:59:23.249Z,99188.56
2018-05-05T09:01:50.652Z,99190.67
2018-05-05T09:04:18.041Z,99193.92
2018-05-05T09:06:45.442Z,99192.51
2018-05-05T09:09:12.846Z,99187.39
2018-05-05T09:11:40.220Z,99180.28
2018-05-05T09:14:07.762Z,99182.47
2018-05-05T09:16:35.148Z,99178.91
2018-05-05T09:19:03.104Z,99176.28
2018-05-05T09:21:30.500Z,99174.10
2018-05-05T09:23:57.929Z,99170.67
2018-05-05T09:26:25.324Z,99171.62
2018-05-05T09:28:52.713Z,99167.14
2018-05-05T09:31:20.552Z,99170.05
2018-05-05T09:33:48.369Z,99163.70
2018-05-05T09:36:15.705Z,99171.39
2018-05-05T09:38:43.094Z,99172.25
2018-05-05T09:41:10.494Z,99174.80
2018-05-05T09:43:37.880Z,99169.06
2018-05-05T09:46:05.276Z,99160.44
2018-05-05T09:48:32.667Z,99161.53
2018-05-05T09:51:00.145Z,99153.58
2018-05-05T09:53:27.533Z,99158.94
2018-05-05T09:55:54.930Z,99155.19
2018-05-05T09:58:22.439Z,99154.61
2018-05-05T10:00:49.961Z,99143.70
2018-05-05T10:03:20.547Z,99146.56
2018-05-05T10:05:47.968Z,99142.36
2018-05-05T10:08:15.391Z,99139.58
2018-05-05T10:10:42.772Z,99140.31
2018-05-05T10:13:10.164Z,99130.00
2018-05-05T10:15:37.560Z,99128.18
2018-05-05T10:18:05.676Z,99136.91
2018-05-05T10:20:33.081Z,99128.78
2018-05-05T10:23:00.626Z,99125.07
2018-05-05T10:25:28.020Z,99125.09
2018-05-05T10:27:56.434Z,99124.50
2018-05-05T10:30:23.823Z,99125.02
2018-05-05T10:32:51.228Z,99119.70
2018-05-05T10:35:18.605Z,99117.98
2018-05-05T10:37:45.988Z,99112.98
2018-05-05T10:40:13.379Z,99118.19
2018-05-05T10:42:40.764Z,99114.83
2018-05-05T10:45:08.159Z,99108.30
2018-05-05T10:47:35.552Z,99115.76
2018-05-05T10:50:02.942Z,99100.41
2018-05-05T10:52:30.332Z,99101.20
2018-05-05T10:54:57.852Z,99105.81
2018-05-05T10:57:25.252Z,99096.75
2018-05-05T10:59:52.650Z,99094.51
2018-05-05T11:02:20.054Z,99089.02
2018-05-05T11:04:47.547Z,99086.24
2018-05-05T11:07:14.935Z,99083.08
2018-05-05T11:09:42.326Z,99082.16
2018-05-05T11:12:09.782Z,99080.46
2018-05-05T11:14:38.164Z,99083.02
2018-05-05T11:17:05.560Z,99078.74
2018-05-05T11:19:32.956Z,99080.77
2018-05-05T11:22:00.536Z,99068.12
2018-05-05T11:24:27.946Z,99071.47
2018-05-05T11:26:55.323Z,99071.29
2018-05-05T11:29:22.863Z,99074.34
2018-05-05T11:31:51.015Z,99066.97
2018-05-05T11:34:18.407Z,99072.33
2018-05-05T11:36:46.692Z,99069.11
2018-05-05T11:39:14.027Z,99068.58
2018-05-05T11:41:41.414Z,99066.77
2018-05-05T11:44:09.580Z,99065.66
2018-05-05T11:46:36.966Z,99075.16
2018-05-05T11:49:04.354Z,99065.21
2018-05-05T11:51:31.733Z,99055.75
2018-05-05T11:53:59.470Z,99059.45
2018-05-05T11:56:26.933Z,99057.30
2018-05-05T11:58:54.243Z,99057.84
2018-05-05T12:01:21.641Z,99059.30
2018-05-05T12:03:49.127Z,99048.44
2018-05-05T12:06:18.171Z,99042.63
2018-05-05T12:08:45.567Z,99052.27
2018-05-05T12:11:12.964Z,99042.19
2018-05-05T12:13:41.542Z,99035.20
2018-05-05T12:16:09.200Z,99044.15
2018-05-05T12:18:37.609Z,99039.36
2018-05-05T12:21:05.008Z,99049.65
2018-05-05T12:23:33.412Z,99044.77
2018-05-05T12:26:00.807Z,99037.47
2018-05-05T12:28:28.199Z,99034.02
2018-05-05T12:30:55.586Z,99031.45
2018-05-05T12:33:23.132Z,99029.62
2018-05-05T12:35:50.548Z,99033.27
2018-05-05T12:38:17.932Z,99040.62
2018-05-05T12:40:45.319Z,99032.93
2018-05-05T12:43:12.935Z,99030.75
2018-05-05T12:45:40.336Z,99028.97
2018-05-05T12:48:08.453Z,99034.59
2018-05-05T12:50:36.828Z,99022.45
2018-05-05T12:53:04.223Z,99026.33
2018-05-05T12:55:31.629Z,99025.55
2018-05-05T12:57:59.023Z,99020.59
2018-05-05T13:00:26.516Z,99024.06
2018-05-05T13:02:55.907Z,99028.16
2018-05-05T13:05:23.350Z,99028.52
2018-05-05T13:07:50.739Z,99020.53
2018-05-05T13:10:18.982Z,99015.97
2018-05-05T13:12:46.368Z,99017.77
2018-05-05T13:15:13.963Z,99018.36
2018-05-05T13:17:42.026Z,99007.95
2018-05-05T13:20:09.426Z,99009.80
2018-05-05T13:22:36.815Z,99012.91
2018-05-05T13:25:04.201Z,99013.28
2018-05-05T13:27:32.026Z,99009.58
2018-05-05T13:29:59.407Z,99014.03
2018-05-05T13:32:26.803Z,99012.81
2018-05-05T13:34:54.292Z,99007.12
2018-05-05T13:37:22.355Z,99002.12
2018-05-05T13:39:49.739Z,99011.05
2018-05-05T13:42:17.127Z,99006.89
2018-05-05T13:44:45.403Z,99000.89
2018-05-05T13:47:13.577Z,99003.76
2018-05-05T13:49:45.885Z,98995.43
2018-05-05T13:52:13.399Z,98993.16
2018-05-05T13:54:40.836Z,98997.10
2018-05-05T13:57:08.229Z,98997.07
2018-05-05T13:59:35.629Z,98999.42
2018-05-05T14:02:03.788Z,98994.30
2018-05-05T14:04:31.355Z,99004.80
2018-05-05T14:06:58.751Z,98992.75
2018-05-05T14:09:26.216Z,98995.48
2018-05-05T14:11:53.625Z,98997.07
2018-05-05T14:14:21.029Z,98990.03
2018-05-05T14:16:48.412Z,98997.42
2018-05-05T14:19:16.734Z,99001.16
2018-05-05T14:21:44.122Z,98993.32
2018-05-05T14:24:11.527Z,98988.46
2018-05-05T14:26:38.913Z,98987.34
2018-05-05T14:29:06.304Z,98990.45
2018-05-05T14:31:33.704Z,98991.48
2018-05-05T14:34:01.084Z,98984.91
2018-05-05T14:36:28.645Z,98994.30
2018-05-05T14:38:56.035Z,98986.95
2018-05-05T14:41:23.427Z,98989.96
2018-05-05T14:43:50.831Z,98990.44
2018-05-05T14:46:18.550Z,98983.92
2018-05-05T14:48:45.932Z,98991.56
2018-05-05T14:51:13.356Z,98993.31
2018-05-05T14:53:40.865Z,98989.41
2018-05-05T14:56:08.269Z,98994.59
2018-05-05T14:58:35.658Z,99000.09
2018-05-05T15:01:03.044Z,98999.88
2018-05-05T15:03:30.445Z,98993.65
2018-05-05T15:05:57.825Z,98984.48
2018-05-05T15:08:25.232Z,98998.75
2018-05-05T15:10:52.616Z,98993.25
2018-05-05T15:13:20.116Z,98989.55
2018-05-05T15:15:48.153Z,98988.00
2018-05-05T15:18:15.567Z,98994.59
2018-05-05T15:20:43.196Z,98989.04
2018-05-05T15:23:11.095Z,98990.56
2018-05-05T15:25:38.620Z,98995.94
2018-05-05T15:28:06.107Z,98983.31
2018-05-05T15:30:33.519Z,98987.22
2018-05-05T15:33:01.012Z,98983.09
2018-05-05T15:35:28.405Z,98991.89
2018-05-05T15:37:56.012Z,98994.16
2018-05-05T15:40:23.403Z,99001.43
2018-05-05T15:42:51.154Z,98995.66
2018-05-05T15:45:19.084Z,98994.87
2018-05-05T15:47:47.308Z,98990.64
2018-05-05T15:50:15.371Z,98992.66
2018-05-05T15:52:43.388Z,98999.16
2018-05-05T15:55:13.123Z,98991.00
2018-05-05T15:57:40.687Z,98995.97
2018-05-05T16:00:08.076Z,98997.94
2018-05-05T16:02:35.478Z,98982.02
2018-05-05T16:05:02.887Z,98988.75
2018-05-05T16:07:30.292Z,98986.79
2018-05-05T16:09:57.691Z,98992.25
2018-05-05T16:12:25.090Z,98995.20
2018-05-05T16:14:52.535Z,98991.22
2018-05-05T16:17:20.312Z,98988.71
2018-05-05T16:19:47.732Z,98983.64
2018-05-05T16:22:15.182Z,98990.56
2018-05-05T16:24:42.638Z,98991.07
2018-05-05T16:27:10.044Z,98992.33
2018-05-05T16:29:37.430Z,98989.61
2018-05-05T16:32:04.825Z,98989.05
2018-05-05T16:34:32.224Z,98984.27
2018-05-05T16:36:59.621Z,98999.97
2018-05-05T16:39:27.024Z,98984.45
2018-05-05T16:41:54.419Z,98984.86
2018-05-05T16:44:21.959Z,98983.19
2018-05-05T16:46:49.343Z,98988.06
2018-05-05T16:49:16.752Z,98986.67
2018-05-05T16:51:45.071Z,98978.98
2018-05-05T16:54:12.691Z,98978.53
2018-05-05T16:56:40.092Z,98979.20
2018-05-05T16:59:07.466Z,98976.56
2018-05-05T17:01:35.170Z,98977.39
2018-05-05T17:04:03.465Z,98978.63
2018-05-05T17:06:30.849Z,98983.34
2018-05-05T17:08:58.249Z,98976.02
2018-05-05T17:11:25.639Z,98977.85
2018-05-05T17:13:53.026Z,98980.97
2018-05-05T17:16:20.407Z,98979.13
2018-05-05T17:18:47.805Z,98977.45
2018-05-05T17:21:15.184Z,98974.92
2018-05-05T17:23:42.580Z,98980.82
2018-05-05T17:26:09.975Z,98980.90
2018-05-05T17:28:37.361Z,98982.65
2018-05-05T17:31:04.766Z,98977.48
2018-05-05T17:33:32.141Z,98986.66
2018-05-05T17:36:00.212Z,98986.95
2018-05-05T17:38:27.594Z,98978.84
2018-05-05T17:40:55.027Z,98980.57
2018-05-05T17:43:22.418Z,98980.54
2018-05-05T17:45:49.820Z,98983.16
2018-05-05T17:48:17.208Z,98981.56
2018-05-05T17:50:44.860Z,98975.75
2018-05-05T17:53:12.319Z,98979.23
2018-05-05T17:55:39.727Z,98978.72
2018-05-05T17:58:07.113Z,98989.66
2018-05-05T18:00:34.517Z,98983.37
2018-05-05T18:03:02.455Z,98986.09
2018-05-05T18:05:30.273Z,98988.88
2018-05-05T18:07:57.668Z,98995.80
2018-05-05T18:10:25.057Z,98988.88
2018-05-05T18:12:53.315Z,98991.98
2018-05-05T18:15:20.700Z,98988.53
2018-05-05T18:17:48.104Z,98995.37
2018-05-05T18:20:15.496Z,98995.59
2018-05-05T18:22:42.887Z,98992.55
2018-05-05T18:25:10.284Z,99002.66
2018-05-05T18:27:38.368Z,99008.01
2018-05-05T18:30:05.774Z,99002.06
2018-05-05T18:32:33.160Z,99009.19
2018-05-05T18:35:01.265Z,99002.31
2018-05-05T18:37:28.665Z,99003.28
2018-05-05T18:39:56.049Z,99009.74
2018-05-05T18:42:24.315Z,99013.88
2018-05-05T18:44:51.703Z,99010.84
2018-05-05T18:47:19.109Z,99015.92
2018-05-05T18:49:46.493Z,99013.37
2018-05-05T18:52:13.900Z,99026.66
2018-05-05T18:54:41.894Z,99030.63
2018-05-05T18:57:09.295Z,99025.28
2018-05-05T18:59:36.687Z,99026.50
2018-05-05T19:02:04.081Z,99029.89
2018-05-05T19:04:31.466Z,99039.85
2018-05-05T19:06:59.824Z,99041.64
2018-05-05T19:09:27.556Z,99043.66
2018-05-05T19:11:55.290Z,99046.94
2018-05-05T19:14:22.681Z,99042.91
2018-05-05T19:16:50.080Z,99056.96
2018-05-05T19:19:17.510Z,99052.30
2018-05-05T19:21:45.472Z,99064.71
2018-05-05T19:24:12.864Z,99060.36
2018-05-05T19:26:40.250Z,99068.56
2018-05-05T19:29:07.673Z,99070.58
2018-05-05T19:31:35.052Z,99069.71
2018-05-05T19:36:36.213Z,99073.64
2018-05-05T19:39:05.168Z,99073.92
2018-05-05T19:41:32.807Z,99073.74
2018-05-05T19:44:00.579Z,99084.94
2018-05-05T19:46:27.972Z,99082.93
2018-05-05T19:48:55.358Z,99085.23
2018-05-05T19:51:22.760Z,99091.55
2018-05-05T19:53:50.151Z,99089.13
2018-05-05T19:56:17.579Z,99098.57
2018-05-05T19:58:45.769Z,99094.64
2018-05-05T20:01:13.141Z,99088.33
2018-05-05T20:03:41.317Z,99090.80
2018-05-05T20:06:09.619Z,99095.39
2018-05-05T20:08:37.317Z,99103.70
2018-05-05T20:11:04.784Z,99103.55
2018-05-05T20:13:32.248Z,99107.73
2018-05-05T20:16:01.094Z,99107.63
2018-05-05T20:18:28.497Z,99106.96
2018-05-05T20:20:56.167Z,99108.10
2018-05-05T20:23:23.623Z,99105.33
2018-05-05T20:25:52.002Z,99106.41
2018-05-05T20:28:19.849Z,99115.38
2018-05-05T20:30:48.354Z,99116.97
2018-05-05T20:33:16.101Z,99123.09
2018-05-05T20:35:43.481Z,99118.17
2018-05-05T20:38:11.478Z,99114.92
2018-05-05T20:40:38.860Z,99121.09
2018-05-05T20:43:06.240Z,99123.02
2018-05-05T20:45:33.633Z,99124.22
2018-05-05T20:48:01.086Z,99136.62
2018-05-05T20:50:28.478Z,99128.62
2018-05-05T20:52:55.864Z,99132.05
2018-05-05T20:55:23.257Z,99128.62
2018-05-05T20:57:50.642Z,99140.63
2018-05-05T21:00:18.111Z,99138.70
2018-05-05T21:02:45.502Z,99143.67
2018-05-05T21:05:12.891Z,99140.09
2018-05-05T21:07:41.178Z,99140.57
2018-05-05T21:10:08.572Z,99142.63
2018-05-05T21:12:35.959Z,99147.98
2018-05-05T21:15:03.348Z,99148.61
2018-05-05T21:17:31.552Z,99150.18
2018-05-05T21:19:59.570Z,99153.92
2018-05-05T21:22:27.413Z,99157.23
2018-05-05T21:24:54.813Z,99149.81
2018-05-05T21:27:22.244Z,99153.78
2018-05-05T21:29:49.628Z,99154.86
2018-05-05T21:32:17.079Z,99156.31
2018-05-05T21:34:44.521Z,99159.21
2018-05-05T21:37:11.977Z,99161.20
2018-05-05T21:39:39.433Z,99162.37
2018-05-05T21:42:09.782Z,99164.59
2018-05-05T21:44:37.198Z,99161.67
2018-05-05T21:47:04.593Z,99162.34
2018-05-05T21:49:32.026Z,99164.41
2018-05-05T21:51:59.509Z,99160.84
2018-05-05T21:54:26.961Z,99168.77
2018-05-05T21:56:54.392Z,99163.59
2018-05-05T22:02:38.159Z,99157.66
2018-05-05T22:05:05.600Z,99157.83
2018-05-05T22:07:32.993Z,99164.34
2018-05-05T22:10:00.373Z,99164.41
2018-05-05T22:12:27.792Z,99163.54
2018-05-05T22:14:55.156Z,99171.03
2018-05-05T22:17:22.574Z,99160.37
2018-05-05T22:19:49.964Z,99162.77
2018-05-05T22:22:18.408Z,99165.91
2018-05-05T22:24:45.788Z,99166.19
2018-05-05T22:27:13.180Z,99173.45
2018-05-05T22:29:40.620Z,99174.58
2018-05-05T22:32:08.059Z,99171.50
2018-05-05T22:34:36.263Z,99169.16
2018-05-05T22:37:04.476Z,99166.41
2018-05-05T22:39:32.715Z,99165.50
2018-05-05T22:42:01.897Z,99169.91
2018-05-05T22:44:29.264Z,99170.94
2018-05-05T22:46:56.663Z,99169.44
2018-05-05T22:49:24.155Z,99175.46
2018-05-05T22:51:51.608Z,99172.64
2018-05-05T22:54:19.067Z,99173.05
2018-05-05T22:56:46.528Z,99177.86
2018-05-05T22:59:13.975Z,99178.16
2018-05-05T23:01:42.188Z,99183.63
2018-05-05T23:04:09.606Z,99182.47
2018-05-05T23:06:36.995Z,99185.83
2018-05-05T23:09:05.066Z,99185.36
2018-05-05T23:11:32.531Z,99185.33
2018-05-05T23:14:00.988Z,99183.15
2018-05-05T23:16:28.463Z,99182.19
2018-05-05T23:18:55.916Z,99176.77
2018-05-05T23:21:23.363Z,99186.00
2018-05-05T23:23:50.828Z,99174.12
2018-05-05T23:26:18.285Z,99177.20
2018-05-05T23:28:46.012Z,99170.45
2018-05-05T23:31:13.409Z,99171.67
2018-05-05T23:33:40.905Z,99171.51
2018-05-05T23:36:08.284Z,99168.47
2018-05-05T23:38:36.914Z,99164.98
2018-05-05T23:41:05.109Z,99166.34
2018-05-05T23:43:34.483Z,99161.17
2018-05-05T23:46:02.704Z,99156.56
2018-05-05T23:48:30.621Z,99161.23
2018-05-05T23:50:58.109Z,99157.74
2018-05-05T23:53:25.563Z,99163.23
2018-05-05T23:55:53.003Z,99163.17
2018-05-05T23:58:20.390Z,99161.84
